createdAt,value
2022-08-02T00:00:02.614Z,17.7
2022-08-02T00:05:02.401Z,17.76
2022-08-02T00:10:02.946Z,17.72
2022-08-02T00:15:02.949Z,17.5
2022-08-02T00:20:02.752Z,17.38
2022-08-02T00:25:02.607Z,17.38
2022-08-02T00:30:03.363Z,17.13
2022-08-02T00:35:02.974Z,16.84
2022-08-02T00:40:02.864Z,16.68
2022-08-02T00:45:03.312Z,16.61
2022-08-02T00:50:02.635Z,16.55
2022-08-02T00:55:03.632Z,16.44
2022-08-02T01:00:03.210Z,16.39
2022-08-02T01:05:02.870Z,16.13
2022-08-02T01:10:02.561Z,15.67
2022-08-02T01:15:03.299Z,15.42
2022-08-02T01:20:02.716Z,15.61
2022-08-02T01:25:02.791Z,15.98
2022-08-02T01:30:03.227Z,15.8
2022-08-02T01:35:03.228Z,15.57
2022-08-02T01:40:02.812Z,15.49
2022-08-02T01:45:02.594Z,15.85
2022-08-02T01:50:02.774Z,15.99
2022-08-02T01:55:03.810Z,16.2
2022-08-02T02:00:03.136Z,16.43
2022-08-02T02:05:02.895Z,16.53
2022-08-02T02:10:02.858Z,16.49
2022-08-02T02:15:02.517Z,16.28
2022-08-02T02:20:03.074Z,16.08
2022-08-02T02:25:06.817Z,15.74
2022-08-02T02:30:02.385Z,15.27
2022-08-02T02:35:03.022Z,14.75
2022-08-02T02:40:03.184Z,14.32
2022-08-02T02:45:03.015Z,13.92
2022-08-02T02:50:02.470Z,13.59
2022-08-02T02:55:04.674Z,13.59
2022-08-02T03:00:03.285Z,13.85
2022-08-02T03:05:03.068Z,13.78
2022-08-02T03:10:02.593Z,13.8
2022-08-02T03:15:02.683Z,14.03
2022-08-02T03:20:02.382Z,14.03
2022-08-02T03:25:03.192Z,13.9
2022-08-02T03:30:03.291Z,13.94
2022-08-02T03:35:02.838Z,13.99
2022-08-02T03:40:02.921Z,13.67
2022-08-02T03:45:07.944Z,13.5
2022-08-02T03:50:02.983Z,13.6
2022-08-02T03:55:03.893Z,13.72
2022-08-02T04:00:03.134Z,13.76
2022-08-02T04:05:02.823Z,13.9
2022-08-02T04:10:02.849Z,14.32
2022-08-02T04:15:02.447Z,14.93
2022-08-02T04:20:02.235Z,15.44
2022-08-02T04:25:04.326Z,15.78
2022-08-02T04:30:02.529Z,16.04
2022-08-02T04:35:21.214Z,16.3
2022-08-02T04:40:02.825Z,16.57
2022-08-02T04:45:02.621Z,16.71
2022-08-02T04:50:02.270Z,16.72
2022-08-02T04:55:04.271Z,16.87
2022-08-02T05:00:02.735Z,17.09
2022-08-02T05:05:10.241Z,17.21
2022-08-02T05:10:02.977Z,17.65
2022-08-02T05:15:03.231Z,19.78
2022-08-02T05:20:03.139Z,21.01
2022-08-02T05:25:02.827Z,20.32
2022-08-02T05:30:02.520Z,21
2022-08-02T05:35:03.123Z,22.44
2022-08-02T05:40:03.142Z,24.44
2022-08-02T05:45:02.869Z,25.29
2022-08-02T05:50:02.335Z,24.65
2022-08-02T05:55:04.514Z,23.41
2022-08-02T06:00:03.570Z,23.32
2022-08-02T06:05:03.349Z,23.55
2022-08-02T06:10:03.019Z,23.54
2022-08-02T06:15:02.289Z,24.31
2022-08-02T06:20:03.255Z,23.66
2022-08-02T06:25:02.792Z,23.38
2022-08-02T06:30:02.387Z,24.61
2022-08-02T06:35:02.535Z,24.94
2022-08-02T06:40:02.319Z,24.97
2022-08-02T06:45:02.971Z,25.09
2022-08-02T06:50:03.240Z,25.47
2022-08-02T06:55:03.462Z,24.26
2022-08-02T07:00:02.415Z,24.04
2022-08-02T07:05:02.224Z,26.4
2022-08-02T07:10:03.216Z,26.16
2022-08-02T07:15:03.022Z,25.63
2022-08-02T07:20:02.486Z,26.05
2022-08-02T07:25:02.282Z,27.03
2022-08-02T07:30:03.244Z,25.7
2022-08-02T07:35:07.426Z,24.87
2022-08-02T07:40:02.780Z,24.78
2022-08-02T07:45:03.013Z,26.99
2022-08-02T07:50:02.585Z,27.06
2022-08-02T07:55:04.194Z,27.11
2022-08-02T08:00:03.238Z,27.24
2022-08-02T08:05:03.144Z,28.47
2022-08-02T08:10:02.778Z,28.61
2022-08-02T08:15:02.296Z,28.08
2022-08-02T08:20:03.283Z,27.56
2022-08-02T08:25:04.307Z,28.8
2022-08-02T08:30:02.872Z,27.3
2022-08-02T08:35:02.862Z,26.38
2022-08-02T08:40:02.301Z,25.83
2022-08-02T08:45:03.897Z,26.85
2022-08-02T08:50:02.852Z,26.37
2022-08-02T08:55:03.812Z,25.65
2022-08-02T09:00:02.657Z,23.65
2022-08-02T09:05:03.158Z,26.35
2022-08-02T09:10:02.794Z,25.84
2022-08-02T09:15:02.728Z,26.52
2022-08-02T09:20:02.423Z,28.59
2022-08-02T09:25:02.924Z,28.78
2022-08-02T09:30:15.585Z,27.69
2022-08-02T09:35:03.121Z,26.24
2022-08-02T09:40:02.659Z,27.44
2022-08-02T09:45:02.673Z,28.21
2022-08-02T09:50:03.040Z,27.02
2022-08-02T09:55:03.587Z,28.1
2022-08-02T10:00:03.427Z,28.72
2022-08-02T10:05:03.077Z,27.22
2022-08-02T10:10:02.876Z,26.91
2022-08-02T10:15:02.464Z,27.34
2022-08-02T10:20:05.571Z,26.89
2022-08-02T10:25:02.371Z,27.02
2022-08-02T10:30:03.075Z,28.4
2022-08-02T10:35:27.192Z,28.86
2022-08-02T10:40:02.736Z,27.91
2022-08-02T10:45:02.444Z,26.79
2022-08-02T10:50:03.574Z,27.79
2022-08-02T10:55:22.913Z,28.01
2022-08-02T11:00:02.641Z,28.34
2022-08-02T11:05:02.574Z,28.36
2022-08-02T11:10:02.526Z,28.52
2022-08-02T11:15:02.594Z,28.86
2022-08-02T11:20:02.610Z,29.44
2022-08-02T11:25:02.200Z,29.22
2022-08-02T11:30:03.118Z,28.79
2022-08-02T11:35:02.942Z,30.34
2022-08-02T11:40:02.327Z,28.5
2022-08-02T11:45:03.166Z,29.39
2022-08-02T11:50:03.130Z,29.58
2022-08-02T11:55:03.652Z,29.25
2022-08-02T12:00:02.485Z,29.58
2022-08-02T12:05:09.350Z,30.65
2022-08-02T12:10:02.551Z,29.65
2022-08-02T12:15:02.240Z,29.44
2022-08-02T12:20:03.701Z,28.88
2022-08-02T12:25:02.936Z,29.66
2022-08-02T12:30:02.273Z,30.28
2022-08-02T12:35:03.231Z,31.2
2022-08-02T12:40:02.991Z,31
2022-08-02T12:45:03.086Z,30.19
2022-08-02T12:50:02.981Z,29.57
2022-08-02T12:55:03.473Z,30
2022-08-02T13:00:03.216Z,31.26
2022-08-02T13:05:03.136Z,29.78
2022-08-02T13:10:04.212Z,31
2022-08-02T13:15:02.288Z,31.39
2022-08-02T13:20:04.891Z,30.78
2022-08-02T13:25:02.865Z,30.23
2022-08-02T13:30:02.329Z,30.57
2022-08-02T13:35:05.165Z,30.32
2022-08-02T13:40:23.087Z,31.46
2022-08-02T13:45:14.770Z,31.06
2022-08-02T13:50:03.328Z,31.46
2022-08-02T13:55:13.320Z,34.01
2022-08-02T14:00:02.970Z,32.33
2022-08-02T14:05:02.530Z,30.66
2022-08-02T14:10:02.340Z,30.57
2022-08-02T14:15:02.900Z,30.21
2022-08-02T14:20:03.054Z,30.1
2022-08-02T14:25:09.656Z,30.2
2022-08-02T14:30:03.198Z,31.59
2022-08-02T14:35:03.423Z,31.29
2022-08-02T14:40:03.183Z,30.86
2022-08-02T14:45:02.538Z,30.53
2022-08-02T14:50:02.699Z,30.01
2022-08-02T14:55:04.238Z,30.33
2022-08-02T15:00:02.701Z,31.23
2022-08-02T15:05:02.384Z,31.14
2022-08-02T15:10:02.494Z,30.49
2022-08-02T15:15:03.126Z,31.72
2022-08-02T15:20:05.783Z,30.31
2022-08-02T15:25:03.029Z,29.74
2022-08-02T15:30:03.879Z,30.1
2022-08-02T15:35:02.408Z,30.43
2022-08-02T15:40:03.142Z,30.58
2022-08-02T15:45:02.999Z,31.11
2022-08-02T15:50:02.773Z,31.97
2022-08-02T15:55:07.883Z,31.25
2022-08-02T16:00:02.404Z,30.35
2022-08-02T16:05:03.180Z,29.57
2022-08-02T16:10:02.971Z,29.93
2022-08-02T16:15:02.852Z,29.85
2022-08-02T16:20:02.454Z,29.96
2022-08-02T16:25:03.182Z,30.39
2022-08-02T16:30:03.134Z,30.75
2022-08-02T16:35:09.270Z,30.21
2022-08-02T16:40:02.923Z,30.18
2022-08-02T16:45:03.089Z,31.09
2022-08-02T16:50:11.053Z,30.45
2022-08-02T16:55:11.119Z,30.06
2022-08-02T17:00:03.539Z,28.73
2022-08-02T17:05:03.252Z,28.6
2022-08-02T17:10:09.075Z,29.28
2022-08-02T17:15:08.880Z,29.83
2022-08-02T17:20:02.326Z,28.69
2022-08-02T17:25:03.169Z,28.8
2022-08-02T17:30:11.440Z,28.82
2022-08-02T17:35:04.262Z,29.15
2022-08-02T17:40:02.699Z,30.15
2022-08-02T17:45:27.974Z,30.5
2022-08-02T17:50:03.651Z,29.78
2022-08-02T17:55:03.950Z,30.39
2022-08-02T18:00:05.098Z,30.05
2022-08-02T18:05:04.741Z,29.52
2022-08-02T18:10:04.925Z,28.85
2022-08-02T18:15:14.334Z,28.57
2022-08-02T18:20:11.192Z,27.87
2022-08-02T18:25:08.991Z,27.16
2022-08-02T18:30:05.333Z,26.92
2022-08-02T18:35:02.492Z,25.52
2022-08-02T18:40:02.509Z,24.74
2022-08-02T18:45:02.207Z,24.26
2022-08-02T18:50:03.434Z,24.3
2022-08-02T18:56:04.421Z,23.62
2022-08-02T19:00:02.667Z,22.46
2022-08-02T19:05:07.177Z,21.6
2022-08-02T19:10:02.757Z,21.29
2022-08-02T19:15:02.899Z,21.73
2022-08-02T19:20:02.564Z,22.15
2022-08-02T19:25:03.181Z,22.42
2022-08-02T19:30:03.249Z,22.57
2022-08-02T19:35:34.520Z,22.95
2022-08-02T19:40:03.250Z,22.69
2022-08-02T19:45:03.189Z,22.38
2022-08-02T19:50:03.939Z,22.03
2022-08-02T19:56:03.321Z,21.61
2022-08-02T20:00:03.159Z,21.56
2022-08-02T20:05:26.615Z,21.58
2022-08-02T20:10:02.721Z,20.84
2022-08-02T20:15:02.495Z,19.86
2022-08-02T20:20:03.071Z,19.02
2022-08-02T20:25:02.472Z,18.69
2022-08-02T20:30:02.929Z,18.22
2022-08-02T20:35:02.671Z,17.83
2022-08-02T20:40:02.191Z,17.85
2022-08-02T20:45:02.890Z,18.48
2022-08-02T20:50:03.073Z,19.16
2022-08-02T20:55:04.125Z,18.82
2022-08-02T21:00:02.916Z,18.14
2022-08-02T21:05:03.660Z,17.52
2022-08-02T21:10:03.075Z,16.92
2022-08-02T21:15:03.190Z,16.89
2022-08-02T21:20:02.862Z,16.6
2022-08-02T21:25:02.250Z,16.35
2022-08-02T21:30:03.262Z,16.43
2022-08-02T21:35:03.376Z,16.36
2022-08-02T21:40:02.520Z,16.38
2022-08-02T21:45:19.966Z,16.19
2022-08-02T21:50:17.022Z,15.97
2022-08-02T21:55:08.763Z,15.83
2022-08-02T22:00:07.371Z,15.5
2022-08-02T22:10:02.881Z,15.3
2022-08-02T22:15:02.469Z,15.46
2022-08-02T22:20:02.733Z,15.65
2022-08-02T22:25:04.689Z,15.68
2022-08-02T22:30:02.828Z,15.68
2022-08-02T22:35:09.147Z,15.45
2022-08-02T22:40:09.792Z,15.18
2022-08-02T22:45:02.451Z,15.04
2022-08-02T22:50:02.771Z,15
2022-08-02T22:55:04.156Z,14.9
2022-08-02T23:00:02.840Z,15
2022-08-02T23:05:02.635Z,15.4
2022-08-02T23:10:02.662Z,15.29
2022-08-02T23:15:03.122Z,15.04
2022-08-02T23:20:03.386Z,14.82
2022-08-02T23:25:03.010Z,14.5
2022-08-02T23:30:03.670Z,14.43
2022-08-02T23:35:02.638Z,14.36
2022-08-02T23:40:02.210Z,14.35
2022-08-02T23:45:03.263Z,14.79
2022-08-02T23:50:03.042Z,14.95
2022-08-02T23:55:03.753Z,14.88
